Egham, United Kingdom
Current Conditions -  °F | °C
As of 8:20 AM on Tuesday 21 Oct 2014 (Local Time) from EGLL Reporting Station
Scattered Clouds Scattered Clouds  
Wind Chill: 57°   Ceiling: Unl
Heat Index: 57°   Visibility: 6mi
Dew Point: 54°   Wind: 23mph
Humidity: 88%   Direction: 250°WSW
Pressure: 29.56"   Gusts: NA
Location:  51.43°N, 0.55°W
Report Text: EGLL 210720Z 25020KT 9999 SCT027 14/12 Q1001 RERA
Loading
Personal Weather Stations






























Interactive Weather Map New forecast layout! Learn more

10-Day Weather Forecast

Advertisements
Track Severe Weather on mobile